Time;durP1;ratioP1;P1;durP2;ratioP2;P2;SDS_P1;SDS_P2;PMS_P1;PMS_P2;Temp;Humidity;BMP_temperature;BMP_pressure;BME280_temperature;BME280_humidity;BME280_pressure;Samples;Min_cycle;Max_cycle;Signal;HPM_P1;HPM_P2
2021/04/19 00:01:06;;;;;;;19.75;16.00;;;;;;;5.17;100.00;100923.17;1839182;76;21217;-87
2021/04/19 00:03:35;;;;;;;23.20;17.92;;;;;;;5.25;100.00;100924.93;1851103;76;21488;-87
2021/04/19 00:06:04;;;;;;;21.00;18.07;;;;;;;5.33;100.00;100925.41;1850831;76;21174;-87
2021/04/19 00:08:34;;;;;;;20.65;16.70;;;;;;;5.43;100.00;100922.38;1853450;76;21170;-87
2021/04/19 00:11:04;;;;;;;22.07;17.05;;;;;;;5.51;100.00;100926.72;1858852;77;21415;-87
2021/04/19 00:13:34;;;;;;;20.27;18.00;;;;;;;5.59;100.00;100927.65;1847946;76;21171;-87
2021/04/19 00:16:02;;;;;;;21.40;17.52;;;;;;;5.65;100.00;100922.17;1845643;76;21190;-87
2021/04/19 00:18:30;;;;;;;19.00;16.50;;;;;;;5.71;100.00;100912.81;1858805;76;21217;-86
2021/04/19 00:20:59;;;;;;;20.12;15.63;;;;;;;5.80;100.00;100915.41;1853379;76;21185;-87
2021/04/19 00:23:28;;;;;;;17.70;14.78;;;;;;;5.86;100.00;100906.05;1847355;76;21552;-87
2021/04/19 00:25:58;;;;;;;17.37;15.03;;;;;;;5.94;100.00;100915.98;1847894;76;21134;-87
2021/04/19 00:28:26;;;;;;;18.82;15.70;;;;;;;5.97;100.00;100911.96;1840670;76;21163;-87
2021/04/19 00:30:56;;;;;;;17.50;15.20;;;;;;;6.00;100.00;100913.97;1852712;76;21321;-87
2021/04/19 00:33:25;;;;;;;17.42;15.45;;;;;;;6.04;100.00;100909.94;1828120;77;21037;-87
2021/04/19 00:35:54;;;;;;;16.55;14.68;;;;;;;6.07;100.00;100905.89;1839223;76;21302;-87
2021/04/19 00:38:22;;;;;;;18.73;15.45;;;;;;;6.10;100.00;100909.62;1858650;77;21130;-87
2021/04/19 00:40:54;;;;;;;15.75;14.05;;;;;;;6.12;100.00;100903.92;1853341;76;21622;-87
2021/04/19 00:43:23;;;;;;;14.90;12.95;;;;;;;6.12;100.00;100902.63;1838239;76;21585;-87
2021/04/19 00:45:52;;;;;;;17.87;14.70;;;;;;;6.09;100.00;100906.18;1850912;76;21122;-87
2021/04/19 00:48:22;;;;;;;18.27;15.85;;;;;;;6.06;100.00;100904.20;1844218;76;21059;-87
2021/04/19 00:50:55;;;;;;;16.82;14.07;;;;;;;6.02;100.00;100896.25;1849519;76;21143;-87
2021/04/19 00:53:20;;;;;;;16.15;14.23;;;;;;;5.98;100.00;100898.95;1835413;76;21169;-87
2021/04/19 00:55:49;;;;;;;16.32;14.47;;;;;;;5.91;100.00;100903.23;1849318;76;21126;-87
2021/04/19 00:58:18;;;;;;;19.90;16.55;;;;;;;5.86;100.00;100898.30;1851777;76;21134;-87
2021/04/19 01:00:47;;;;;;;17.95;15.05;;;;;;;5.78;100.00;100892.68;1854175;76;21476;-87
2021/04/19 01:03:15;;;;;;;18.17;16.10;;;;;;;5.72;100.00;100891.70;1826680;77;21135;-87
2021/04/19 01:05:46;;;;;;;21.45;14.70;;;;;;;5.68;100.00;100889.73;1824082;76;21142;-87
2021/04/19 01:08:14;;;;;;;18.85;16.77;;;;;;;5.66;100.00;100887.67;1843324;77;21115;-87
2021/04/19 01:10:44;;;;;;;16.35;14.63;;;;;;;5.64;100.00;100883.03;1853250;76;21114;-87
2021/04/19 01:13:13;;;;;;;16.23;14.55;;;;;;;5.61;100.00;100885.31;1840527;76;21181;-87
2021/04/19 01:15:41;;;;;;;18.77;16.17;;;;;;;5.55;100.00;100878.31;1851962;76;21193;-87
2021/04/19 01:18:11;;;;;;;15.50;13.90;;;;;;;5.51;100.00;100889.27;1839577;76;21051;-87
2021/04/19 01:20:43;;;;;;;16.35;14.65;;;;;;;5.45;100.00;100884.41;1821630;78;21171;-86
2021/04/19 01:23:15;;;;;;;17.27;15.10;;;;;;;5.40;100.00;100879.93;1826872;77;21122;-87
2021/04/19 01:25:45;;;;;;;18.23;15.03;;;;;;;5.36;100.00;100876.20;1827896;77;21146;-87
2021/04/19 01:28:15;;;;;;;17.65;15.38;;;;;;;5.35;100.00;100884.85;1824830;77;21175;-87
2021/04/19 01:30:48;;;;;;;16.82;14.98;;;;;;;5.34;100.00;100882.36;1836810;77;21060;-87
2021/04/19 01:33:17;;;;;;;19.62;15.78;;;;;;;5.34;100.00;100879.30;1850829;76;21147;-87
2021/04/19 01:35:48;;;;;;;19.52;15.98;;;;;;;5.34;100.00;100883.17;1841615;76;21925;-87
2021/04/19 01:38:22;;;;;;;20.20;17.52;;;;;;;5.35;100.00;100874.52;1857959;76;21355;-87
2021/04/19 01:40:54;;;;;;;17.00;15.08;;;;;;;5.34;100.00;100870.27;1854117;76;21178;-87
2021/04/19 01:43:24;;;;;;;16.20;13.98;;;;;;;5.35;100.00;100869.36;1853980;76;21074;-87
2021/04/19 01:45:54;;;;;;;15.72;13.60;;;;;;;5.31;100.00;100872.16;1838570;76;21125;-86
2021/04/19 01:48:24;;;;;;;13.80;12.40;;;;;;;5.14;100.00;100871.23;1850938;76;21467;-87
2021/04/19 01:50:54;;;;;;;12.33;11.03;;;;;;;4.98;100.00;100872.44;1844567;76;21357;-87
2021/04/19 01:53:23;;;;;;;12.53;10.75;;;;;;;4.82;100.00;100880.52;1858759;76;21559;-87
2021/04/19 01:55:51;;;;;;;12.95;11.35;;;;;;;4.66;100.00;100874.78;1846784;76;21143;-87
2021/04/19 01:58:26;;;;;;;12.25;10.95;;;;;;;4.56;100.00;100874.37;1842500;76;21149;-87
2021/04/19 02:01:00;;;;;;;11.53;10.43;;;;;;;4.53;100.00;100867.20;1850379;76;21134;-86
2021/04/19 02:03:53;;;;;;;11.80;10.60;;;;;;;4.50;100.00;100869.95;1848885;77;22276;-86
2021/04/19 02:06:59;;;;;;;15.55;12.80;;;;;;;4.50;100.00;100877.68;1852542;77;21095;-87
2021/04/19 02:09:39;;;;;;;13.38;12.05;;;;;;;4.47;100.00;100875.23;1858685;77;21170;-87
2021/04/19 02:12:45;;;;;;;15.45;13.78;;;;;;;4.37;100.00;100878.22;1839650;76;21067;-87
2021/04/19 02:15:22;;;;;;;16.12;14.33;;;;;;;4.31;100.00;100881.08;1845208;76;21174;-87
2021/04/19 02:18:31;;;;;;;15.55;13.53;;;;;;;4.30;100.00;100885.84;1833693;76;22746;-88
2021/04/19 02:21:10;;;;;;;14.10;12.43;;;;;;;4.30;100.00;100876.00;1850074;76;21173;-86
2021/04/19 02:23:57;;;;;;;18.53;15.80;;;;;;;4.22;100.00;100878.47;1845599;76;21179;-87
2021/04/19 02:26:35;;;;;;;20.88;16.97;;;;;;;4.15;100.00;100874.49;1846644;76;21206;-88
2021/04/19 02:29:18;;;;;;;22.77;18.23;;;;;;;4.14;100.00;100874.53;1854997;76;21620;-87
2021/04/19 02:31:57;;;;;;;18.73;15.95;;;;;;;4.16;100.00;100870.16;1849349;76;21645;-85
2021/04/19 02:34:30;;;;;;;26.82;17.12;;;;;;;4.15;100.00;100872.34;1807870;78;21191;-86
2021/04/19 02:37:02;;;;;;;20.08;15.40;;;;;;;4.08;100.00;100871.34;1822519;77;21135;-86
2021/04/19 02:39:37;;;;;;;20.75;17.17;;;;;;;4.03;100.00;100865.98;1826811;77;21242;-86
2021/04/19 02:42:08;;;;;;;26.50;17.95;;;;;;;4.01;100.00;100875.52;1823366;77;21189;-86
2021/04/19 02:44:37;;;;;;;23.87;19.15;;;;;;;4.02;100.00;100875.48;1830339;77;21405;-86
2021/04/19 02:47:15;;;;;;;25.82;19.85;;;;;;;4.14;100.00;100879.69;1822114;78;21575;-87
2021/04/19 02:49:45;;;;;;;26.77;20.20;;;;;;;4.14;100.00;100879.69;1800518;77;21396;-87
2021/04/19 02:52:15;;;;;;;29.32;22.20;;;;;;;4.32;100.00;100886.62;1825198;78;21119;-87
2021/04/19 02:54:47;;;;;;;29.23;21.50;;;;;;;4.42;100.00;100889.18;1827332;77;21563;-87
2021/04/19 02:57:32;;;;;;;26.90;19.67;;;;;;;4.42;100.00;100889.18;1828978;77;21147;-87
2021/04/19 03:00:03;;;;;;;26.97;19.87;;;;;;;4.51;100.00;100889.67;1824465;77;21066;-86
2021/04/19 03:02:33;;;;;;;23.57;19.02;;;;;;;4.60;100.00;100886.68;1828833;77;21175;-85
2021/04/19 03:05:05;;;;;;;29.57;21.15;;;;;;;4.68;100.00;100887.16;1825971;78;21116;-85
2021/04/19 03:07:38;;;;;;;26.85;20.85;;;;;;;4.78;100.00;100890.58;1808290;78;21170;-86
2021/04/19 03:10:12;;;;;;;25.85;20.23;;;;;;;4.84;100.00;100890.33;1834735;77;21531;-86
2021/04/19 03:12:45;;;;;;;27.98;21.45;;;;;;;4.89;100.00;100897.38;1848895;76;21540;-86
2021/04/19 03:15:18;;;;;;;27.95;22.85;;;;;;;4.96;100.00;100896.66;1852676;76;21162;-86
2021/04/19 03:17:50;;;;;;;28.50;22.02;;;;;;;5.02;100.00;100895.89;1853140;76;21107;-85
2021/04/19 03:20:29;;;;;;;25.30;20.37;;;;;;;5.09;100.00;100895.63;1853519;76;21115;-86
2021/04/19 03:24:14;;;;;;;24.43;20.60;;;;;;;5.17;100.00;100890.90;1847367;77;22404;-86
2021/04/19 03:26:52;;;;;;;26.52;21.60;;;;;;;5.10;100.00;100889.52;1824224;77;21114;-85
2021/04/19 03:29:22;;;;;;;27.77;20.35;;;;;;;5.09;100.00;100887.41;1793897;78;21371;-85
2021/04/19 03:32:42;;;;;;;25.95;20.25;;;;;;;5.15;100.00;100889.69;1800417;78;23059;-84
2021/04/19 03:35:16;;;;;;;29.25;23.83;;;;;;;5.15;100.00;100891.45;1741174;80;21160;-84
2021/04/19 03:37:47;;;;;;;31.62;24.27;;;;;;;5.13;100.00;100890.68;1754644;79;21253;-85
2021/04/19 03:40:34;;;;;;;29.27;22.87;;;;;;;5.03;100.00;100896.27;1719698;81;21872;-85
2021/04/19 03:43:10;;;;;;;31.73;23.98;;;;;;;4.98;100.00;100888.36;1730916;82;21556;-85
2021/04/19 03:45:43;;;;;;;44.45;27.45;;;;;;;4.95;100.00;100893.22;1731047;82;21136;-85
2021/04/19 03:48:39;;;;;;;39.90;26.50;;;;;;;4.90;100.00;100898.59;1888800;75;21986;-85
2021/04/19 03:51:15;;;;;;;33.98;24.50;;;;;;;4.90;100.00;100898.59;1844586;77;21548;-87
2021/04/19 03:53:49;;;;;;;31.80;23.02;;;;;;;4.93;100.00;100896.31;1823008;77;22509;-86
2021/04/19 03:56:21;;;;;;;29.95;22.50;;;;;;;4.97;100.00;100897.01;1844763;77;21182;-86
2021/04/19 03:58:52;;;;;;;26.55;21.48;;;;;;;5.05;100.00;100900.06;1854042;77;21128;-87
2021/04/19 04:01:21;;;;;;;29.05;22.77;;;;;;;5.14;100.00;100905.27;1859584;77;21196;-87
2021/04/19 04:03:52;;;;;;;52.47;22.93;;;;;;;5.21;100.00;100906.64;1859945;77;21424;-87
2021/04/19 04:06:28;;;;;;;45.23;25.02;;;;;;;5.27;100.00;100902.93;1853776;77;22137;-87
2021/04/19 04:08:59;;;;;;;40.80;24.90;;;;;;;5.85;100.00;100897.91;1848075;77;21084;-87
2021/04/19 04:11:28;;;;;;;54.25;25.10;;;;;;;6.45;100.00;100897.42;1796646;78;21542;-87
2021/04/19 04:14:04;;;;;;;39.35;25.10;;;;;;;6.75;100.00;100891.97;1821316;78;21219;-88
2021/04/19 04:16:34;;;;;;;40.55;26.33;;;;;;;6.85;100.00;100890.53;1826030;78;21148;-86
2021/04/19 04:19:12;;;;;;;38.15;27.30;;;;;;;7.01;100.00;100897.48;1872584;75;22726;-84
2021/04/19 04:21:43;;;;;;;41.80;28.07;;;;;;;7.04;100.00;100899.43;1832594;77;21450;-86
2021/04/19 04:24:13;;;;;;;48.33;28.83;;;;;;;7.05;100.00;100903.66;1814106;77;21362;-86
2021/04/19 04:26:42;;;;;;;35.75;26.52;;;;;;;7.08;100.00;100897.03;1840301;77;21126;-86
2021/04/19 04:29:12;;;;;;;32.70;24.23;;;;;;;7.13;100.00;100896.77;1816025;77;21430;-87
2021/04/19 04:31:42;;;;;;;39.33;24.60;;;;;;;7.06;100.00;100892.39;1801173;78;21188;-86
2021/04/19 04:34:13;;;;;;;34.10;24.75;;;;;;;7.09;100.00;100896.59;1812136;78;21660;-86
2021/04/19 04:36:43;;;;;;;34.70;21.73;;;;;;;7.29;100.00;100899.32;1807586;77;21187;-86
2021/04/19 04:39:13;;;;;;;35.00;23.22;;;;;;;7.42;100.00;100894.27;1820356;77;21527;-87
2021/04/19 04:41:59;;;;;;;28.77;20.97;;;;;;;7.41;100.00;100896.52;1841293;75;27746;-89
2021/04/19 04:48:03;;;;;;;39.25;23.18;;;;;;;7.20;100.00;100901.98;1828856;78;21370;-90
2021/04/19 04:51:03;;;;;;;31.62;23.15;;;;;;;7.12;100.00;100893.81;1723177;83;21143;-90
2021/04/19 04:53:47;;;;;;;37.78;21.68;;;;;;;7.19;100.00;100900.30;1748341;82;21142;-89
2021/04/19 04:56:18;;;;;;;27.70;22.00;;;;;;;7.31;100.00;100903.14;1757178;80;21104;-89
2021/04/19 04:58:52;;;;;;;27.62;21.82;;;;;;;7.45;100.00;100894.11;1759344;81;21192;-90
2021/04/19 05:04:45;;;;;;;27.02;22.85;;;;;;;7.57;100.00;100886.91;1759181;81;21138;-89
2021/04/19 05:07:48;;;;;;;29.52;24.50;;;;;;;7.55;100.00;100886.19;1759083;81;21191;-89
2021/04/19 05:10:23;;;;;;;28.25;23.75;;;;;;;7.40;100.00;100887.08;1759073;80;21159;-89
2021/04/19 05:12:55;;;;;;;27.05;22.77;;;;;;;7.33;100.00;100890.94;1758973;81;21109;-87
2021/04/19 05:15:26;;;;;;;22.52;20.00;;;;;;;7.38;100.00;100889.73;1759050;81;21559;-89
2021/04/19 05:17:54;;;;;;;26.85;23.30;;;;;;;7.40;100.00;100891.78;1759104;81;21163;-88
2021/04/19 05:20:28;;;;;;;25.77;21.52;;;;;;;7.44;100.00;100896.33;1758745;81;21544;-88
2021/04/19 05:22:58;;;;;;;25.05;21.12;;;;;;;7.42;100.00;100888.65;1758848;80;21159;-88
2021/04/19 05:25:28;;;;;;;25.02;21.60;;;;;;;7.36;100.00;100892.05;1768413;79;21169;-88
2021/04/19 05:32:21;;;;;;;27.55;22.52;;;;;;;7.36;100.00;100885.56;1797807;79;21120;-86
2021/04/19 05:34:50;;;;;;;25.62;22.65;;;;;;;7.30;100.00;100889.81;1774024;80;21152;-85
2021/04/19 05:37:26;;;;;;;24.27;21.20;;;;;;;7.24;100.00;100894.43;1759297;81;21197;-88
2021/04/19 05:39:57;;;;;;;27.50;22.40;;;;;;;7.23;100.00;100895.34;1750155;80;21181;-87
2021/04/19 05:42:26;;;;;;;27.75;22.73;;;;;;;7.29;100.00;100888.14;1773805;79;21214;-88
2021/04/19 05:44:55;;;;;;;28.62;23.27;;;;;;;7.33;100.00;100877.98;1772092;80;21172;-88
2021/04/19 05:47:31;;;;;;;28.38;23.18;;;;;;;7.41;100.00;100880.50;1782465;79;21086;-88
2021/04/19 05:54:04;;;;;;;27.42;21.95;;;;;;;7.54;100.00;100871.56;1758910;80;21162;-87
2021/04/19 06:01:04;;;;;;;30.55;24.35;;;;;;;7.55;100.00;100865.45;1769351;80;21123;-87
2021/04/19 06:12:22;;;;;;;28.02;23.38;;;;;;;7.89;100.00;100868.63;1781205;80;21170;-86
2021/04/19 06:19:16;;;;;;;31.10;24.50;;;;;;;8.08;100.00;100883.08;1767153;79;21781;-87
2021/04/19 06:25:51;;;;;;;33.83;27.15;;;;;;;8.35;100.00;100879.75;1754787;79;21075;-86
2021/04/19 06:32:44;;;;;;;39.30;30.70;;;;;;;8.57;100.00;100875.84;1752888;80;21122;-86
2021/04/19 06:39:36;;;;;;;39.60;31.77;;;;;;;8.65;100.00;100883.98;1771121;80;21214;-86
2021/04/19 06:42:39;;;;;;;46.05;32.10;;;;;;;8.73;100.00;100879.14;1780118;79;21585;-85
2021/04/19 06:45:15;;;;;;;40.63;30.88;;;;;;;8.80;100.00;100877.83;1765813;81;21115;-89
2021/04/19 06:48:19;;;;;;;41.20;31.23;;;;;;;8.92;100.00;100876.20;1766911;79;21205;-89
2021/04/19 06:55:12;;;;;;;30.72;25.80;;;;;;;9.12;100.00;100873.63;1767159;81;21179;-87
2021/04/19 07:02:06;;;;;;;36.35;28.87;;;;;;;9.36;100.00;100872.95;1794719;79;21192;-87
2021/04/19 07:08:51;;;;;;;36.48;30.05;;;;;;;9.62;100.00;100882.09;1762094;81;20243;-87
2021/04/19 07:15:43;;;;;;;33.08;27.67;;;;;;;9.71;100.00;100884.53;1767001;80;21553;-87
2021/04/19 07:26:59;;;;;;;34.25;29.27;;;;;;;9.97;100.00;100888.44;1772506;80;21578;-87
2021/04/19 07:33:51;;;;;;;37.23;30.90;;;;;;;10.16;100.00;100882.80;1767086;81;21143;-86
2021/04/19 07:40:48;;;;;;;43.38;32.30;;;;;;;10.44;100.00;100889.55;1798873;77;21009;-87
2021/04/19 07:52:09;;;;;;;36.15;29.18;;;;;;;10.93;100.00;100877.87;1780599;80;21179;-86
2021/04/19 07:58:43;;;;;;;31.15;25.90;;;;;;;11.30;100.00;100868.20;1790888;79;21413;-86
2021/04/19 08:05:49;;;;;;;28.90;25.10;;;;;;;11.90;100.00;100857.61;1784970;80;21139;-87
2021/04/19 08:12:42;;;;;;;27.73;23.60;;;;;;;12.04;100.00;100850.55;1784689;80;20229;-87
2021/04/19 08:24:13;;;;;;;30.52;27.02;;;;;;;12.34;100.00;100854.31;1768825;81;21025;-88
2021/04/19 08:30:51;;;;;;;30.30;26.73;;;;;;;12.24;100.00;100854.22;1764613;80;21203;-85
2021/04/19 08:37:43;;;;;;;33.50;29.85;;;;;;;12.43;100.00;100859.63;1738169;82;21127;-85
2021/04/19 08:44:02;;;;;;;33.58;29.98;;;;;;;12.63;100.00;100855.43;1760939;80;21080;-86
2021/04/19 08:47:14;;;;;;;34.45;30.75;;;;;;;12.71;100.00;100846.15;1774893;80;21148;-85
2021/04/19 08:54:07;;;;;;;31.35;28.00;;;;;;;12.82;100.00;100841.39;1775360;80;21555;-87
2021/04/19 09:00:43;;;;;;;32.00;28.38;;;;;;;12.52;100.00;100859.39;1836789;78;21131;-86
2021/04/19 09:07:38;;;;;;;30.32;26.55;;;;;;;12.34;100.00;100846.48;1808755;77;21142;-86
2021/04/19 09:14:35;;;;;;;29.70;26.60;;;;;;;12.76;100.00;100851.85;1819993;77;21118;-86
2021/04/19 09:21:50;;;;;;;28.80;24.77;;;;;;;12.99;100.00;100851.77;1805754;77;21562;-86
2021/04/19 09:32:46;;;;;;;28.35;24.85;;;;;;;12.78;100.00;100849.46;1796595;79;21455;-86
2021/04/19 09:39:58;;;;;;;27.13;24.18;;;;;;;12.82;100.00;100846.13;1857103;77;21114;-89
2021/04/19 09:43:07;;;;;;;30.57;24.07;;;;;;;12.94;100.00;100854.75;1839362;77;21307;-89
2021/04/19 09:46:07;;;;;;;26.90;24.00;;;;;;;13.04;100.00;100855.66;1836847;78;21150;-90
2021/04/19 09:48:40;;;;;;;27.77;24.72;;;;;;;13.04;100.00;100859.59;1768253;78;21240;-89
2021/04/19 09:51:28;;;;;;;29.77;26.73;;;;;;;13.16;100.00;100864.28;1808431;78;21118;-89
2021/04/19 09:54:08;;;;;;;27.27;24.27;;;;;;;13.17;100.00;100859.41;1830423;77;21542;-88
2021/04/19 09:56:44;;;;;;;29.60;26.37;;;;;;;13.06;100.00;100861.58;1801511;79;21366;-88
2021/04/19 09:59:24;;;;;;;31.82;26.25;;;;;;;13.01;100.00;100858.52;1795887;79;21149;-90
2021/04/19 10:01:56;;;;;;;;;;;;;;;13.06;100.00;100866.80;1815512;77;21630;-85
2021/04/19 10:08:50;;;;;;;26.17;23.20;;;;;;;13.05;100.00;100865.17;1827585;77;21145;-87
2021/04/19 10:15:41;;;;;;;27.58;24.57;;;;;;;12.88;100.00;100865.22;1829025;78;20920;-88
2021/04/19 10:22:33;;;;;;;30.72;24.98;;;;;;;12.51;100.00;100871.25;1842501;77;21131;-87
2021/04/19 10:29:42;;;;;;;26.40;23.75;;;;;;;12.23;100.00;100874.25;1842668;77;21634;-87
2021/04/19 10:33:10;;;;;;;25.65;22.95;;;;;;;12.15;100.00;100879.24;1754179;80;21179;-89
2021/04/19 10:35:46;;;;;;;28.27;25.32;;;;;;;12.22;100.00;100884.34;1789027;78;21142;-89
2021/04/19 10:38:17;;;;;;;25.27;22.58;;;;;;;12.34;100.00;100877.33;1791510;78;21172;-87
2021/04/19 10:40:59;;;;;;;24.95;22.48;;;;;;;12.50;100.00;100887.91;1758932;79;21562;-87
2021/04/19 10:43:56;;;;;;;28.27;25.02;;;;;;;12.61;100.00;100883.48;1796392;79;22276;-88
2021/04/19 10:46:40;;;;;;;24.52;22.05;;;;;;;12.74;100.00;100881.19;1800057;79;21865;-88
2021/04/19 10:49:38;;;;;;;25.85;23.15;;;;;;;12.79;100.00;100879.02;1764956;81;21153;-88
2021/04/19 10:52:09;;;;;;;26.07;21.93;;;;;;;12.86;100.00;100880.19;1789019;79;21527;-89
2021/04/19 10:54:44;;;;;;;;;;;;;;;12.99;100.00;100874.80;1785675;79;21110;-89
2021/04/19 10:57:26;;;;;;;22.62;20.32;;;;;;;13.08;100.00;100875.36;1799447;78;21370;-89
2021/04/19 10:59:58;;;;;;;23.80;21.30;;;;;;;13.17;100.00;100876.87;1786554;79;21156;-89
2021/04/19 11:05:55;;;;;;;21.77;19.55;;;;;;;13.49;100.00;100873.41;1785613;79;21623;-89
2021/04/19 11:08:54;;;;;;;21.57;19.27;;;;;;;13.75;100.00;100875.13;1777876;79;21172;-89
2021/04/19 11:11:45;;;;;;;19.70;17.02;;;;;;;13.87;100.00;100871.49;1788676;79;22274;-89
2021/04/19 11:14:27;;;;;;;17.25;15.45;;;;;;;14.14;100.00;100877.92;1766478;80;21120;-89
2021/04/19 11:17:06;;;;;;;18.85;16.97;;;;;;;14.29;100.00;100877.58;1795067;78;21577;-89
2021/04/19 11:19:44;;;;;;;20.52;18.32;;;;;;;14.31;100.00;100879.10;1786820;79;21161;-89
2021/04/19 11:22:34;;;;;;;18.20;16.30;;;;;;;14.19;100.00;100873.13;1796259;79;21110;-86
2021/04/19 11:25:26;;;;;;;17.02;15.08;;;;;;;14.19;100.00;100874.45;1795155;79;21612;-88
2021/04/19 11:28:20;;;;;;;18.45;16.55;;;;;;;14.10;100.00;100875.73;1804430;78;21150;-88
2021/04/19 11:30:50;;;;;;;18.80;16.52;;;;;;;13.97;100.00;100867.59;1805952;78;21564;-88
2021/04/19 11:34:09;;;;;;;17.40;15.70;;;;;;;13.84;100.00;100866.51;1815183;79;21149;-88
2021/04/19 11:36:43;;;;;;;16.25;14.53;;;;;;;13.79;100.00;100871.77;1810592;79;21482;-86
2021/04/19 11:43:22;;;;;;;16.55;14.93;;;;;;;13.79;100.00;100860.84;1814898;78;21134;-87
2021/04/19 11:46:06;;;;;;;16.82;15.18;;;;;;;13.71;100.00;100863.28;1813170;79;21126;-88
2021/04/19 11:48:38;;;;;;;16.23;14.65;;;;;;;13.59;100.00;100863.84;1810589;79;21107;-89
2021/04/19 11:51:11;;;;;;;16.70;14.47;;;;;;;13.59;100.00;100858.61;1804039;79;21087;-86
2021/04/19 11:57:24;;;;;;;14.60;13.15;;;;;;;13.52;100.00;100865.31;1808803;79;20210;-84
2021/04/19 11:59:54;;;;;;;15.95;14.25;;;;;;;13.45;100.00;100857.63;1812931;79;21516;-84
2021/04/19 12:02:22;;;;;;;16.48;14.78;;;;;;;13.44;100.00;100852.86;1787039;79;21153;-84
2021/04/19 12:05:17;;;;;;;16.27;14.45;;;;;;;13.44;100.00;100850.73;1765973;79;21165;-84
2021/04/19 12:07:49;;;;;;;14.63;13.13;;;;;;;13.42;100.00;100840.37;1795417;79;21184;-82
2021/04/19 12:10:17;;;;;;;14.33;12.88;;;;;;;13.43;100.00;100839.42;1786983;78;21193;-83
2021/04/19 12:12:46;;;;;;;14.90;13.45;;;;;;;13.47;100.00;100838.23;1795494;79;21137;-82
2021/04/19 12:15:15;;;;;;;15.45;12.85;;;;;;;13.54;100.00;100833.32;1733852;81;21170;-83
2021/04/19 12:17:44;;;;;;;13.40;12.05;;;;;;;13.59;100.00;100831.59;1775220;79;21560;-82
2021/04/19 12:20:13;;;;;;;12.88;11.53;;;;;;;13.61;100.00;100827.92;1795558;78;21323;-83
2021/04/19 12:22:41;;;;;;;12.25;11.05;;;;;;;13.66;100.00;100828.84;1795248;79;21145;-82
2021/04/19 12:25:10;;;;;;;12.73;11.38;;;;;;;13.71;100.00;100829.27;1767973;79;21194;-83
2021/04/19 12:27:41;;;;;;;12.15;10.90;;;;;;;13.75;100.00;100829.34;1754232;79;21134;-84
2021/04/19 12:30:10;;;;;;;11.48;10.28;;;;;;;13.84;100.00;100821.20;1789022;78;21182;-84
2021/04/19 12:32:38;;;;;;;11.70;10.60;;;;;;;13.93;100.00;100828.72;1808841;78;21535;-84
2021/04/19 12:35:08;;;;;;;12.75;11.45;;;;;;;13.95;100.00;100818.95;1803269;79;21143;-83
2021/04/19 12:37:38;;;;;;;14.23;11.53;;;;;;;13.91;98.31;100818.39;1803232;79;21555;-82
2021/04/19 12:40:08;;;;;;;11.90;10.60;;;;;;;13.87;97.43;100823.53;1772319;79;21146;-83
2021/04/19 12:42:36;;;;;;;12.40;11.15;;;;;;;13.90;100.00;100828.52;1792350;78;21163;-83
2021/04/19 12:45:05;;;;;;;10.82;9.73;;;;;;;13.95;95.82;100820.27;1768482;79;22234;-83
2021/04/19 12:47:34;;;;;;;10.70;9.60;;;;;;;13.94;95.21;100825.97;1794064;79;21529;-84
2021/04/19 12:50:04;;;;;;;12.50;10.40;;;;;;;13.92;99.10;100824.45;1793798;79;21080;-83
2021/04/19 12:52:33;;;;;;;9.95;8.80;;;;;;;13.91;97.49;100823.63;1817182;78;21142;-84
2021/04/19 12:55:19;;;;;;;11.65;10.28;;;;;;;13.97;98.18;100816.55;1819594;78;21652;-85
2021/04/19 12:57:48;;;;;;;12.13;10.93;;;;;;;14.07;98.38;100812.64;1816296;78;21567;-85
2021/04/19 13:00:17;;;;;;;12.70;11.12;;;;;;;14.13;93.96;100815.22;1785526;78;21153;-91
2021/04/19 13:03:14;;;;;;;11.30;10.20;;;;;;;14.11;94.57;100821.91;1782389;79;21129;-90
2021/04/19 13:10:12;;;;;;;10.98;9.93;;;;;;;14.12;96.77;100814.41;1796497;78;21122;-92
2021/04/19 13:13:15;;;;;;;12.10;10.08;;;;;;;14.18;90.73;100811.24;1796583;79;22073;-88
2021/04/19 13:15:44;;;;;;;11.90;9.85;;;;;;;14.18;92.44;100809.12;1713703;82;21484;-87
2021/04/19 13:18:13;;;;;;;11.28;10.18;;;;;;;14.18;91.66;100807.81;1735914;80;21184;-88
2021/04/19 13:25:07;;;;;;;12.88;11.60;;;;;;;14.08;100.00;100806.45;1734081;81;21528;-88
2021/04/19 13:31:58;;;;;;;13.28;11.85;;;;;;;13.81;100.00;100803.13;1728619;81;21119;-87
2021/04/19 13:38:19;;;;;;;13.20;11.80;;;;;;;13.94;100.00;100794.55;1709636;82;21175;-88
2021/04/19 13:45:14;;;;;;;12.18;10.88;;;;;;;13.95;99.22;100797.52;1707921;83;21452;-88
2021/04/19 13:47:42;;;;;;;12.98;11.25;;;;;;;13.98;100.00;100788.59;1680876;85;21155;-89
2021/04/19 13:54:37;;;;;;;13.08;11.78;;;;;;;13.93;100.00;100787.69;1685013;85;21599;-89
2021/04/19 14:01:31;;;;;;;14.78;13.25;;;;;;;13.85;100.00;100783.59;1736629;82;21643;-88
2021/04/19 14:07:56;;;;;;;12.58;11.38;;;;;;;13.89;100.00;100787.59;1767191;81;21567;-88
2021/04/19 14:14:47;;;;;;;12.30;11.03;;;;;;;14.02;100.00;100780.81;1702731;84;21176;-88
2021/04/19 14:17:22;;;;;;;13.93;12.47;;;;;;;14.13;100.00;100780.71;1702821;84;22120;-88
2021/04/19 14:23:42;;;;;;;10.78;9.68;;;;;;;14.12;100.00;100777.74;1677671;83;21604;-87
2021/04/19 14:26:11;;;;;;;12.05;10.85;;;;;;;14.12;100.00;100777.74;1709257;84;21088;-89
2021/04/19 14:33:33;;;;;;;12.20;11.00;;;;;;;14.07;100.00;100786.46;1709249;82;21156;-87
2021/04/19 14:36:11;;;;;;;11.30;10.30;;;;;;;14.03;100.00;100782.47;1709501;83;21136;-87
2021/04/19 14:46:14;;;;;;;12.03;10.88;;;;;;;14.09;99.69;100796.33;1661845;82;21300;-88
2021/04/19 14:53:51;;;;;;;12.25;11.05;;;;;;;13.88;100.00;100794.62;1786367;78;21123;-86
2021/04/19 15:00:43;;;;;;;10.93;9.83;;;;;;;13.54;100.00;100791.46;1815115;79;21516;-86
2021/04/19 15:07:35;;;;;;;13.10;11.35;;;;;;;13.36;100.00;100797.72;1809444;79;21166;-86
2021/04/19 15:14:30;;;;;;;13.20;11.38;;;;;;;13.20;100.00;100789.03;1793546;78;21122;-86
2021/04/19 15:21:14;;;;;;;11.95;10.82;;;;;;;13.04;100.00;100790.31;1744885;82;21166;-88
2021/04/19 15:23:51;;;;;;;11.65;10.45;;;;;;;12.92;100.00;100783.01;1696458;83;22053;-87
2021/04/19 15:29:47;;;;;;;12.33;11.03;;;;;;;12.80;100.00;100783.19;1702639;84;21160;-87
2021/04/19 15:32:46;;;;;;;12.58;10.53;;;;;;;12.71;100.00;100776.91;1702428;84;21217;-86
2021/04/19 15:39:37;;;;;;;11.63;10.53;;;;;;;12.59;100.00;100770.44;1765036;81;21230;-87
2021/04/19 15:46:29;;;;;;;9.40;8.50;;;;;;;12.50;100.00;100756.00;1776223;79;21463;-87
2021/04/19 15:53:21;;;;;;;9.88;8.98;;;;;;;12.37;100.00;100749.63;1796459;79;21113;-87
2021/04/19 16:00:14;;;;;;;9.85;8.93;;;;;;;12.24;100.00;100738.85;1785765;78;21558;-89
2021/04/19 16:07:07;;;;;;;9.35;8.45;;;;;;;12.11;100.00;100736.39;1764908;81;21130;-88
2021/04/19 16:13:39;;;;;;;9.85;8.83;;;;;;;11.98;100.00;100737.84;1796350;79;21302;-89
2021/04/19 16:24:45;;;;;;;12.13;9.48;;;;;;;11.95;100.00;100738.07;1796905;79;21178;-87
2021/04/19 16:35:33;;;;;;;11.05;9.33;;;;;;;12.03;100.00;100764.88;1736309;82;21161;-88
2021/04/19 16:42:25;;;;;;;18.73;10.20;;;;;;;12.08;100.00;100767.98;1747376;82;21174;-88
2021/04/19 16:45:21;;;;;;;11.55;9.43;;;;;;;12.04;100.00;100778.78;1744093;81;21165;-88
2021/04/19 16:47:52;;;;;;;13.10;10.50;;;;;;;11.93;100.00;100789.55;1743327;80;21325;-89
2021/04/19 16:54:26;;;;;;;17.98;12.88;;;;;;;11.72;100.00;100795.95;1723476;81;21148;-88
2021/04/19 16:56:58;;;;;;;13.58;11.88;;;;;;;11.63;100.00;100808.39;1728349;81;21117;-88
2021/04/19 16:59:54;;;;;;;16.30;11.85;;;;;;;11.58;100.00;100800.09;1729434;81;21606;-88
2021/04/19 17:02:23;;;;;;;11.45;10.08;;;;;;;11.49;100.00;100806.37;1742709;81;22733;-88